createdAt,value
2022-11-04T00:02:09.910Z,15.89
2022-11-04T00:07:23.932Z,15.92
2022-11-04T00:12:28.812Z,15.92
2022-11-04T00:17:27.815Z,15.95
2022-11-04T00:22:45.435Z,16.00
2022-11-04T00:28:01.835Z,15.95
2022-11-04T00:33:32.697Z,15.94
2022-11-04T00:38:32.874Z,15.96
2022-11-04T00:43:31.659Z,15.98
2022-11-04T00:48:30.426Z,15.98
2022-11-04T00:53:29.179Z,15.97
2022-11-04T00:58:29.777Z,15.88
2022-11-04T01:03:28.653Z,15.76
2022-11-04T01:08:27.522Z,15.74
2022-11-04T01:13:26.393Z,15.61
2022-11-04T01:18:27.242Z,15.56
2022-11-04T01:23:26.109Z,15.53
2022-11-04T01:28:24.983Z,15.52
2022-11-04T01:33:25.111Z,15.46
2022-11-04T01:38:25.364Z,15.44
2022-11-04T01:43:25.210Z,15.44
2022-11-04T01:48:28.449Z,15.46
2022-11-04T01:53:31.609Z,15.40
2022-11-04T01:58:33.959Z,15.42
2022-11-04T02:03:37.838Z,15.42
2022-11-04T02:08:40.643Z,15.44
2022-11-04T02:13:39.633Z,15.45
2022-11-04T02:18:52.650Z,15.43
2022-11-04T02:24:11.887Z,15.29
2022-11-04T02:29:42.314Z,15.30
2022-11-04T02:34:51.815Z,15.32
2022-11-04T02:39:56.766Z,15.31
2022-11-04T02:45:09.229Z,15.29
2022-11-04T02:50:13.554Z,15.31
2022-11-04T02:55:19.582Z,15.32
2022-11-04T03:00:21.727Z,15.23
2022-11-04T03:05:23.801Z,15.15
2022-11-04T03:10:28.350Z,15.17
2022-11-04T03:15:33.031Z,15.22
2022-11-04T03:20:32.818Z,15.15
2022-11-04T03:25:38.165Z,15.00
2022-11-04T03:30:43.954Z,15.00
2022-11-04T03:35:45.027Z,15.02
2022-11-04T03:40:44.133Z,15.00
2022-11-04T03:45:44.968Z,14.97
2022-11-04T03:50:47.001Z,14.97
2022-11-04T03:56:02.723Z,14.91
2022-11-04T04:01:15.217Z,14.92
2022-11-04T04:06:18.885Z,14.91
2022-11-04T04:11:21.988Z,14.93
2022-11-04T04:16:27.930Z,14.87
2022-11-04T04:21:30.699Z,14.81
2022-11-04T04:26:49.346Z,14.79
2022-11-04T04:31:51.355Z,14.75
2022-11-04T04:36:55.840Z,14.67
2022-11-04T04:42:13.568Z,14.64
2022-11-04T04:47:20.276Z,14.50
2022-11-04T04:52:20.131Z,14.34
2022-11-04T04:57:19.074Z,14.26
2022-11-04T05:02:19.412Z,14.16
2022-11-04T05:07:19.386Z,14.20
2022-11-04T05:12:18.599Z,14.19
2022-11-04T05:17:19.407Z,14.01
2022-11-04T05:22:18.121Z,13.93
2022-11-04T05:27:16.837Z,13.84
2022-11-04T05:32:15.701Z,13.67
2022-11-04T05:37:16.055Z,13.63
2022-11-04T05:42:14.861Z,13.58
2022-11-04T05:47:14.077Z,13.55
2022-11-04T05:52:13.151Z,13.66
2022-11-04T05:57:13.687Z,13.68
2022-11-04T06:02:15.443Z,13.58
2022-11-04T06:07:14.353Z,13.60
2022-11-04T06:12:21.941Z,13.68
2022-11-04T06:17:26.530Z,13.73
2022-11-04T06:22:26.457Z,13.88
2022-11-04T06:27:28.282Z,14.00
2022-11-04T06:32:32.362Z,14.15
2022-11-04T06:37:35.021Z,14.17
2022-11-04T06:42:36.748Z,14.24
2022-11-04T06:47:39.489Z,14.31
2022-11-04T06:52:42.375Z,14.48
2022-11-04T06:57:46.500Z,14.59
2022-11-04T07:02:52.192Z,14.73
2022-11-04T07:07:56.763Z,14.80
2022-11-04T07:12:59.121Z,15.02
2022-11-04T07:17:59.997Z,15.22
2022-11-04T07:22:58.750Z,15.41
2022-11-04T07:28:02.345Z,15.50
2022-11-04T07:33:10.134Z,15.70
2022-11-04T07:38:09.093Z,15.92
2022-11-04T07:43:09.620Z,16.10
2022-11-04T07:48:10.771Z,16.28
2022-11-04T07:53:10.548Z,16.46
2022-11-04T07:58:11.166Z,16.65
2022-11-04T08:03:11.194Z,16.76
2022-11-04T08:08:10.294Z,16.90
2022-11-04T08:13:10.907Z,16.94
2022-11-04T08:18:10.669Z,17.06
2022-11-04T08:23:12.465Z,17.19
2022-11-04T08:28:17.685Z,17.39
2022-11-04T08:33:16.758Z,17.75
2022-11-04T08:38:16.153Z,18.17
2022-11-04T08:43:16.418Z,18.74
2022-11-04T08:48:16.627Z,19.61
2022-11-04T08:53:16.041Z,20.25
2022-11-04T08:58:16.373Z,20.99
2022-11-04T09:03:15.146Z,21.80
2022-11-04T09:08:13.927Z,22.61
2022-11-04T09:13:13.722Z,22.81
2022-11-04T09:18:13.860Z,22.90
2022-11-04T09:23:12.779Z,23.27
2022-11-04T09:28:11.958Z,23.57
2022-11-04T09:33:11.111Z,24.00
2022-11-04T09:38:11.381Z,23.77
2022-11-04T09:43:30.624Z,24.31
2022-11-04T09:48:33.809Z,24.84
2022-11-04T09:53:41.839Z,25.44
2022-11-04T09:58:40.882Z,26.04
2022-11-04T10:03:49.396Z,25.95
2022-11-04T10:09:03.110Z,26.59
2022-11-04T10:14:35.421Z,27.53
2022-11-04T10:19:49.552Z,27.77
2022-11-04T10:24:59.218Z,27.96
2022-11-04T10:30:02.324Z,28.54
2022-11-04T10:35:05.744Z,28.76
2022-11-04T10:40:19.351Z,29.54
2022-11-04T10:45:20.241Z,30.09
2022-11-04T10:50:29.415Z,31.19
2022-11-04T10:55:38.181Z,30.84
2022-11-04T11:00:39.121Z,31.12
2022-11-04T11:05:38.073Z,31.19
2022-11-04T11:10:38.503Z,30.84
2022-11-04T11:15:38.776Z,30.85
2022-11-04T11:20:39.526Z,30.73
2022-11-04T11:25:42.641Z,30.85
2022-11-04T11:30:57.418Z,29.64
2022-11-04T11:35:59.986Z,29.28
2022-11-04T11:41:24.267Z,28.92
2022-11-04T11:46:25.692Z,28.83
2022-11-04T11:51:31.676Z,29.27
2022-11-04T11:56:59.156Z,29.97
2022-11-04T12:02:12.337Z,30.62
2022-11-04T12:12:58.238Z,30.54
2022-11-04T12:18:10.228Z,30.80
2022-11-04T12:23:17.751Z,29.49
2022-11-04T12:28:28.945Z,28.62
2022-11-04T12:33:37.153Z,28.19
2022-11-04T12:38:52.851Z,27.57
2022-11-04T12:44:00.912Z,27.27
2022-11-04T12:49:22.120Z,27.30
2022-11-04T12:54:28.918Z,27.37
2022-11-04T12:59:45.515Z,26.67
2022-11-04T13:05:00.098Z,26.21
2022-11-04T13:10:06.310Z,25.82
2022-11-04T13:15:15.562Z,26.24
2022-11-04T13:20:24.346Z,27.01
2022-11-04T13:25:30.710Z,27.83
2022-11-04T13:30:37.942Z,28.76
2022-11-04T13:35:46.257Z,29.16
2022-11-04T13:41:27.192Z,29.26
2022-11-04T13:46:31.122Z,29.05
2022-11-04T13:51:42.377Z,28.41
2022-11-04T13:56:42.575Z,28.32
2022-11-04T14:01:43.166Z,28.02
2022-11-04T14:06:55.475Z,27.85
2022-11-04T14:12:20.363Z,27.86
2022-11-04T14:17:57.742Z,27.69
2022-11-04T14:23:00.265Z,27.56
2022-11-04T14:28:01.576Z,27.23
2022-11-04T14:33:01.361Z,27.02
2022-11-04T14:38:07.642Z,26.45
2022-11-04T14:43:07.082Z,26.00
2022-11-04T14:48:16.244Z,25.38
2022-11-04T14:53:23.500Z,25.04
2022-11-04T14:58:25.338Z,24.69
2022-11-04T15:08:46.751Z,23.83
2022-11-04T15:13:47.776Z,23.46
2022-11-04T15:18:47.635Z,22.76
2022-11-04T15:23:50.492Z,22.35
2022-11-04T15:28:50.366Z,21.99
2022-11-04T15:33:52.346Z,21.83
2022-11-04T15:38:56.552Z,21.51
2022-11-04T15:43:55.710Z,21.26
2022-11-04T15:49:06.749Z,21.09
2022-11-04T15:54:17.803Z,20.94
2022-11-04T15:59:20.510Z,20.98
2022-11-04T16:04:23.567Z,20.78
2022-11-04T16:09:28.197Z,20.64
2022-11-04T16:14:27.809Z,20.47
2022-11-04T16:19:29.703Z,20.32
2022-11-04T16:24:33.417Z,20.12
2022-11-04T16:29:34.889Z,20.09
2022-11-04T16:34:33.632Z,20.04
2022-11-04T16:39:33.791Z,19.98
2022-11-04T16:44:32.681Z,19.97
2022-11-04T16:49:31.431Z,19.87
2022-11-04T16:54:30.905Z,19.81
2022-11-04T16:59:31.206Z,19.70
2022-11-04T17:04:30.131Z,19.57
2022-11-04T17:09:28.855Z,19.59
2022-11-04T17:14:27.560Z,19.61
2022-11-04T17:19:33.437Z,19.64
2022-11-04T17:24:33.607Z,19.59
2022-11-04T17:29:32.482Z,19.49
2022-11-04T17:34:34.102Z,19.59
2022-11-04T17:39:33.001Z,19.60
2022-11-04T17:44:31.902Z,19.58
2022-11-04T17:49:32.147Z,19.50
2022-11-04T17:54:31.669Z,19.40
2022-11-04T17:59:36.327Z,19.37
2022-11-04T18:04:37.271Z,19.36
2022-11-04T18:09:36.497Z,19.38
2022-11-04T18:14:35.452Z,19.37
2022-11-04T18:19:34.247Z,19.39
2022-11-04T18:24:34.473Z,19.38
2022-11-04T18:29:33.372Z,19.32
2022-11-04T18:34:32.188Z,19.29
2022-11-04T18:39:31.063Z,19.28
2022-11-04T18:44:31.290Z,19.31
2022-11-04T18:49:30.446Z,19.31
2022-11-04T18:54:31.504Z,19.35
2022-11-04T18:59:31.692Z,19.34
2022-11-04T19:04:30.493Z,19.33
2022-11-04T19:09:45.935Z,19.31
2022-11-04T19:14:46.928Z,19.22
2022-11-04T19:19:46.206Z,19.15
2022-11-04T19:24:46.136Z,19.13
2022-11-04T19:29:46.507Z,19.06
2022-11-04T19:34:45.885Z,18.94
2022-11-04T19:39:44.792Z,18.90
2022-11-04T19:44:43.668Z,18.91
2022-11-04T19:49:43.914Z,18.92
2022-11-04T19:54:42.842Z,18.91
2022-11-04T19:59:41.687Z,18.81
2022-11-04T20:04:40.638Z,18.78
2022-11-04T20:09:40.994Z,18.75
2022-11-04T20:14:39.724Z,18.63
2022-11-04T20:19:38.605Z,18.62
2022-11-04T20:24:37.538Z,18.60
2022-11-04T20:29:37.900Z,18.60
2022-11-04T20:34:36.795Z,18.56
2022-11-04T20:39:35.677Z,18.55
2022-11-04T20:44:34.697Z,18.48
2022-11-04T20:49:34.933Z,18.48
2022-11-04T20:54:33.908Z,18.44
2022-11-04T20:59:32.629Z,18.39
2022-11-04T21:04:35.924Z,18.33
2022-11-04T21:09:39.063Z,18.32
2022-11-04T21:14:38.056Z,18.30
2022-11-04T21:19:36.811Z,18.27
2022-11-04T21:24:39.426Z,18.25
2022-11-04T21:29:38.364Z,18.18
2022-11-04T21:34:37.259Z,18.13
2022-11-04T21:39:37.512Z,18.11
2022-11-04T21:44:36.335Z,18.12
2022-11-04T21:49:35.144Z,18.11
2022-11-04T21:54:34.021Z,18.10
2022-11-04T21:59:34.283Z,18.09
2022-11-04T22:04:33.005Z,18.06
2022-11-04T22:09:31.772Z,18.05
2022-11-04T22:14:30.718Z,18.04
2022-11-04T22:19:30.820Z,18.01
2022-11-04T22:24:29.624Z,17.94
2022-11-04T22:29:28.316Z,17.82
2022-11-04T22:34:27.135Z,17.74
2022-11-04T22:39:27.509Z,17.75
2022-11-04T22:44:26.635Z,17.75
2022-11-04T22:49:25.381Z,17.72
2022-11-04T22:54:24.108Z,17.58
2022-11-04T22:59:24.342Z,17.43
2022-11-04T23:04:23.141Z,17.38
2022-11-04T23:09:22.059Z,17.32
2022-11-04T23:14:49.349Z,17.31
2022-11-04T23:19:48.234Z,17.24
2022-11-04T23:25:04.342Z,17.20
2022-11-04T23:30:25.769Z,17.15
2022-11-04T23:35:44.757Z,17.08
2022-11-04T23:41:04.245Z,17.04
2022-11-04T23:46:21.888Z,17.01
2022-11-04T23:51:38.244Z,16.95
2022-11-04T23:56:54.339Z,16.86
